Time;durP1;ratioP1;P1;durP2;ratioP2;P2;SDS_P1;SDS_P2;PMS_P1;PMS_P2;Temp;Humidity;BMP_temperature;BMP_pressure;BME280_temperature;BME280_humidity;BME280_pressure;Samples;Min_cycle;Max_cycle;Signal;HPM_P1;HPM_P2
2023/03/22 00:00:23;;;;;;;;;;;;;;;;;;5074135;28;19924;-81
2023/03/22 00:02:50;;;;;;;;;;;;;;;;;;5074411;28;20054;-82
2023/03/22 00:05:16;;;;;;;;;;;;;;;;;;5074169;28;19928;-82
2023/03/22 00:07:42;;;;;;;;;;;;;;;;;;5073620;28;19924;-82
2023/03/22 00:10:08;;;;;;;;;;;;;;;;;;5073444;28;20014;-82
2023/03/22 00:12:34;;;;;;;;;;;;;;;;;;5073693;28;20392;-82
2023/03/22 00:15:00;;;;;;;;;;;;;;;;;;5074115;28;19925;-82
2023/03/22 00:17:26;;;;;;;;;;;;;;;;;;5073747;28;20368;-82
2023/03/22 00:19:53;;;;;;;;;;;;;;;;;;5073762;28;19932;-83
2023/03/22 00:22:19;;;;;;;;;;;;;;;;;;5074080;28;19931;-83
2023/03/22 00:24:45;;;;;;;;;;;;;;;;;;5072728;28;20076;-82
2023/03/22 00:27:11;;;;;;;;;;;;;;;;;;5074022;28;19931;-82
2023/03/22 00:29:37;;;;;;;;;;;;;;;;;;5073282;28;19924;-82
2023/03/22 00:32:03;;;;;;;;;;;;;;;;;;5073755;28;19994;-82
2023/03/22 00:34:30;;;;;;;;;;;;;;;;;;5073140;28;19931;-83
2023/03/22 00:36:55;;;;;;;;;;;;;;;;;;5073881;28;20066;-82
2023/03/22 00:39:22;;;;;;;;;;;;;;;;;;5072786;28;20011;-82
2023/03/22 00:41:47;;;;;;;;;;;;;;;;;;5073294;28;19924;-82
2023/03/22 00:44:14;;;;;;;;;;;;;;;;;;5073591;28;19970;-82
2023/03/22 00:46:40;;;;;;;;;;;;;;;;;;5073250;28;20304;-82
2023/03/22 00:49:06;;;;;;;;;;;;;;;;;;5073192;28;19935;-82
2023/03/22 00:51:32;;;;;;;;;;;;;;;;;;5072659;28;20411;-83
2023/03/22 00:53:58;;;;;;;;;;;;;;;;;;5072687;28;19925;-80
2023/03/22 00:56:27;;;;;;;;;;;;;;;;;;5073343;28;20414;-82
2023/03/22 00:58:53;;;;;;;;;;;;;;;;;;5073409;28;19924;-81
2023/03/22 01:01:19;;;;;;;;;;;;;;;;;;5073619;28;19970;-82
2023/03/22 01:03:48;;;;;;;;;;;;;;;;;;5072424;28;19928;-82
2023/03/22 01:06:14;;;;;;;;;;;;;;;;;;5073157;28;20366;-83
2023/03/22 01:08:40;;;;;;;;;;;;;;;;;;5072309;28;19943;-82
2023/03/22 01:11:06;;;;;;;;;;;;;;;;;;5072413;28;19994;-82
2023/03/22 01:13:32;;;;;;;;;;;;;;;;;;5072389;28;20297;-82
2023/03/22 01:15:58;;;;;;;;;;;;;;;;;;5088950;28;19924;-82
2023/03/22 01:18:24;;;;;;;;;;;;;;;;;;5072611;28;19947;-83
2023/03/22 01:20:50;;;;;;;;;;;;;;;;;;5072475;28;19925;-83
2023/03/22 01:23:16;;;;;;;;;;;;;;;;;;5072919;28;19924;-83
2023/03/22 01:25:42;;;;;;;;;;;;;;;;;;5071676;28;19931;-82
2023/03/22 01:28:08;;;;;;;;;;;;;;;;;;5072656;28;19924;-82
2023/03/22 01:30:34;;;;;;;;;;;;;;;;;;5072474;28;19924;-82
2023/03/22 01:33:00;;;;;;;;;;;;;;;;;;5072667;28;19924;-82
2023/03/22 01:35:26;;;;;;;;;;;;;;;;;;5072405;28;20325;-82
2023/03/22 01:37:52;;;;;;;;;;;;;;;;;;5071868;28;19924;-82
2023/03/22 01:40:18;;;;;;;;;;;;;;;;;;5071746;28;19924;-82
2023/03/22 01:42:44;;;;;;;;;;;;;;;;;;5072253;28;20430;-82
2023/03/22 01:45:10;;;;;;;;;;;;;;;;;;5072511;28;19931;-82
2023/03/22 01:47:36;;;;;;;;;;;;;;;;;;5072131;28;20019;-82
2023/03/22 01:50:02;;;;;;;;;;;;;;;;;;5072066;28;19972;-82
2023/03/22 01:52:28;;;;;;;;;;;;;;;;;;5072480;28;19925;-82
2023/03/22 01:54:54;;;;;;;;;;;;;;;;;;5071153;28;19924;-82
2023/03/22 01:57:20;;;;;;;;;;;;;;;;;;5072217;28;19929;-82
2023/03/22 01:59:48;;;;;;;;;;;;;;;;;;5071712;28;20372;-83
2023/03/22 02:02:17;;;;;;;;;;;;;;;;;;5071905;28;20377;-82
2023/03/22 02:04:44;;;;;;;;;;;;;;;;;;5071504;28;20292;-82
2023/03/22 02:07:14;;;;;;;;;;;;;;;;;;5072380;28;20316;-82
2023/03/22 02:09:41;;;;;;;;;;;;;;;;;;5071034;28;19924;-82
2023/03/22 02:12:07;;;;;;;;;;;;;;;;;;5072245;28;19925;-82
2023/03/22 02:14:33;;;;;;;;;;;;;;;;;;5072190;28;19925;-82
2023/03/22 02:16:59;;;;;;;;;;;;;;;;;;5071893;28;20015;-82
2023/03/22 02:19:28;;;;;;;;;;;;;;;;;;5071709;28;20365;-82
2023/03/22 02:21:54;;;;;;;;;;;;;;;;;;5071840;28;19931;-82
2023/03/22 02:24:20;;;;;;;;;;;;;;;;;;5071188;28;19931;-83
2023/03/22 02:26:46;;;;;;;;;;;;;;;;;;5071573;28;19928;-82
2023/03/22 02:29:12;;;;;;;;;;;;;;;;;;5072106;28;19931;-83
2023/03/22 02:31:38;;;;;;;;;;;;;;;;;;5071787;28;19929;-81
2023/03/22 02:34:04;;;;;;;;;;;;;;;;;;5071868;28;19924;-81
2023/03/22 02:36:31;;;;;;;;;;;;;;;;;;5072082;28;19939;-82
2023/03/22 02:38:57;;;;;;;;;;;;;;;;;;5086123;28;19928;-81
2023/03/22 02:41:23;;;;;;;;;;;;;;;;;;5071859;28;19925;-82
2023/03/22 02:43:49;;;;;;;;;;;;;;;;;;5071279;28;19924;-82
2023/03/22 02:46:15;;;;;;;;;;;;;;;;;;5071898;28;19925;-82
2023/03/22 02:48:41;;;;;;;;;;;;;;;;;;5071448;28;20526;-82
2023/03/22 02:51:07;;;;;;;;;;;;;;;;;;5071847;28;19931;-82
2023/03/22 02:53:33;;;;;;;;;;;;;;;;;;5070099;28;19924;-82
2023/03/22 02:55:59;;;;;;;;;;;;;;;;;;5070114;28;19924;-82
2023/03/22 02:58:25;;;;;;;;;;;;;;;;;;5071836;28;20254;-83
2023/03/22 03:00:51;;;;;;;;;;;;;;;;;;5071482;28;19924;-82
2023/03/22 03:03:17;;;;;;;;;;;;;;;;;;5071402;28;19970;-81
2023/03/22 03:05:43;;;;;;;;;;;;;;;;;;5071235;28;19976;-82
2023/03/22 03:08:09;;;;;;;;;;;;;;;;;;5071670;28;19925;-81
2023/03/22 03:10:35;;;;;;;;;;;;;;;;;;5070711;28;19932;-83
2023/03/22 03:13:01;;;;;;;;;;;;;;;;;;5073665;28;19920;-81
2023/03/22 03:15:27;;;;;;;;;;;;;;;;;;5075265;28;20281;-82
2023/03/22 03:17:53;;;;;;;;;;;;;;;;;;5074810;28;20007;-82
2023/03/22 03:20:20;;;;;;;;;;;;;;;;;;5075044;28;19924;-81
2023/03/22 03:22:46;;;;;;;;;;;;;;;;;;5074832;28;19925;-82
2023/03/22 03:25:12;;;;;;;;;;;;;;;;;;5074297;28;19924;-82
2023/03/22 03:27:38;;;;;;;;;;;;;;;;;;5074820;28;20368;-81
2023/03/22 03:30:04;;;;;;;;;;;;;;;;;;5074778;28;20513;-82
2023/03/22 03:32:30;;;;;;;;;;;;;;;;;;5075037;28;20062;-82
2023/03/22 03:34:56;;;;;;;;;;;;;;;;;;5074420;28;19929;-82
2023/03/22 03:37:22;;;;;;;;;;;;;;;;;;5075047;28;19925;-82
2023/03/22 03:39:48;;;;;;;;;;;;;;;;;;5073721;28;19924;-82
2023/03/22 03:42:14;;;;;;;;;;;;;;;;;;5074919;28;19978;-82
2023/03/22 03:44:40;;;;;;;;;;;;;;;;;;5074842;28;19924;-82
2023/03/22 03:47:06;;;;;;;;;;;;;;;;;;5074405;28;19972;-82
2023/03/22 03:49:32;;;;;;;;;;;;;;;;;;5074344;28;19925;-81
2023/03/22 03:51:58;;;;;;;;;;;;;;;;;;5074294;28;20284;-83
2023/03/22 03:54:24;;;;;;;;;;;;;;;;;;5073721;28;19929;-82
2023/03/22 03:56:50;;;;;;;;;;;;;;;;;;5074342;28;20037;-81
2023/03/22 03:59:16;;;;;;;;;;;;;;;;;;5074466;28;20411;-81
2023/03/22 04:01:48;;;;;;;;;;;;;;;;;;5074515;28;19969;-82
2023/03/22 04:04:14;;;;;;;;;;;;;;;;;;5074458;28;19924;-82
2023/03/22 04:06:41;;;;;;;;;;;;;;;;;;5074447;28;20408;-82
2023/03/22 04:09:07;;;;;;;;;;;;;;;;;;5072953;28;19932;-82
2023/03/22 04:11:33;;;;;;;;;;;;;;;;;;5074282;28;19948;-82
2023/03/22 04:13:59;;;;;;;;;;;;;;;;;;5073912;28;19925;-82
2023/03/22 04:16:25;;;;;;;;;;;;;;;;;;5074291;28;19970;-82
2023/03/22 04:18:52;;;;;;;;;;;;;;;;;;5072514;28;19925;-81
2023/03/22 04:21:18;;;;;;;;;;;;;;;;;;5090099;28;19946;-82
2023/03/22 04:23:45;;;;;;;;;;;;;;;;;;5072968;28;19932;-83
2023/03/22 04:26:11;;;;;;;;;;;;;;;;;;5073386;28;20384;-82
2023/03/22 04:28:37;;;;;;;;;;;;;;;;;;5072752;28;19925;-83
2023/03/22 04:31:03;;;;;;;;;;;;;;;;;;5073595;28;19931;-83
2023/03/22 04:33:31;;;;;;;;;;;;;;;;;;5073816;28;19924;-82
2023/03/22 04:35:57;;;;;;;;;;;;;;;;;;5072977;28;20455;-82
2023/03/22 04:38:24;;;;;;;;;;;;;;;;;;5072793;28;19980;-81
2023/03/22 04:40:50;;;;;;;;;;;;;;;;;;5073396;28;19925;-83
2023/03/22 04:43:17;;;;;;;;;;;;;;;;;;5073413;28;19929;-82
2023/03/22 04:45:45;;;;;;;;;;;;;;;;;;5089570;28;19932;-82
2023/03/22 04:48:11;;;;;;;;;;;;;;;;;;5073233;28;20315;-82
2023/03/22 04:50:36;;;;;;;;;;;;;;;;;;5073356;28;19924;-82
2023/03/22 04:53:02;;;;;;;;;;;;;;;;;;5073111;28;19932;-82
2023/03/22 04:55:28;;;;;;;;;;;;;;;;;;5072238;28;20018;-82
2023/03/22 04:57:54;;;;;;;;;;;;;;;;;;5072948;28;20335;-79
2023/03/22 05:00:21;;;;;;;;;;;;;;;;;;5073349;28;19925;-83
2023/03/22 05:02:48;;;;;;;;;;;;;;;;;;5073046;28;20378;-83
2023/03/22 05:05:14;;;;;;;;;;;;;;;;;;5072698;28;20007;-82
2023/03/22 05:07:40;;;;;;;;;;;;;;;;;;5073284;28;19931;-83
2023/03/22 05:10:06;;;;;;;;;;;;;;;;;;5071922;28;19928;-82
2023/03/22 05:12:32;;;;;;;;;;;;;;;;;;5072110;28;19925;-82
2023/03/22 05:14:59;;;;;;;;;;;;;;;;;;5072727;28;19954;-84
2023/03/22 05:17:25;;;;;;;;;;;;;;;;;;5072972;28;20039;-82
2023/03/22 05:19:51;;;;;;;;;;;;;;;;;;5072693;28;20039;-83
2023/03/22 05:22:18;;;;;;;;;;;;;;;;;;5072334;28;20426;-82
2023/03/22 05:24:44;;;;;;;;;;;;;;;;;;5071040;28;19924;-83
2023/03/22 05:27:10;;;;;;;;;;;;;;;;;;5072212;28;19932;-82
2023/03/22 05:29:36;;;;;;;;;;;;;;;;;;5072812;28;19936;-82
2023/03/22 05:32:02;;;;;;;;;;;;;;;;;;5072371;28;19936;-82
2023/03/22 05:34:34;;;;;;;;;;;;;;;;;;5072535;28;19924;-82
2023/03/22 05:37:00;;;;;;;;;;;;;;;;;;5071690;28;19924;-82
2023/03/22 05:39:26;;;;;;;;;;;;;;;;;;5071016;28;20118;-82
2023/03/22 05:41:52;;;;;;;;;;;;;;;;;;5071676;28;19925;-82
2023/03/22 05:44:18;;;;;;;;;;;;;;;;;;5072171;28;20019;-82
2023/03/22 05:46:44;;;;;;;;;;;;;;;;;;5072590;28;20015;-82
2023/03/22 05:49:10;;;;;;;;;;;;;;;;;;5071828;28;19932;-82
2023/03/22 05:51:40;;;;;;;;;;;;;;;;;;5072449;28;19932;-83
2023/03/22 05:54:06;;;;;;;;;;;;;;;;;;5071073;28;19928;-83
2023/03/22 05:56:32;;;;;;;;;;;;;;;;;;5072565;28;19993;-83
2023/03/22 05:58:58;;;;;;;;;;;;;;;;;;5071963;28;20254;-79
2023/03/22 06:01:24;;;;;;;;;;;;;;;;;;5071968;28;19924;-82
2023/03/22 06:03:50;;;;;;;;;;;;;;;;;;5072178;28;19952;-83
2023/03/22 06:06:16;;;;;;;;;;;;;;;;;;5071743;28;20385;-82
2023/03/22 06:08:42;;;;;;;;;;;;;;;;;;5071767;28;19921;-83
2023/03/22 06:11:08;;;;;;;;;;;;;;;;;;5071077;28;19971;-82
2023/03/22 06:13:34;;;;;;;;;;;;;;;;;;5072266;28;20383;-83
2023/03/22 06:16:00;;;;;;;;;;;;;;;;;;5071929;28;19925;-79
2023/03/22 06:18:26;;;;;;;;;;;;;;;;;;5071740;28;20384;-83
2023/03/22 06:20:52;;;;;;;;;;;;;;;;;;5071931;28;19986;-83
2023/03/22 06:23:18;;;;;;;;;;;;;;;;;;5071683;28;19924;-83
2023/03/22 06:25:44;;;;;;;;;;;;;;;;;;5071095;28;19931;-84
2023/03/22 06:28:10;;;;;;;;;;;;;;;;;;5071771;28;19924;-83
2023/03/22 06:30:36;;;;;;;;;;;;;;;;;;5071974;28;19924;-82
2023/03/22 06:33:04;;;;;;;;;;;;;;;;;;5071159;28;19979;-82
2023/03/22 06:35:30;;;;;;;;;;;;;;;;;;5087647;28;20331;-82
2023/03/22 06:37:55;;;;;;;;;;;;;;;;;;5071791;28;19932;-83
2023/03/22 06:40:21;;;;;;;;;;;;;;;;;;5070669;28;20524;-82
2023/03/22 06:42:48;;;;;;;;;;;;;;;;;;5071432;28;19925;-82
2023/03/22 06:45:15;;;;;;;;;;;;;;;;;;5087392;28;19925;-82
2023/03/22 06:47:41;;;;;;;;;;;;;;;;;;5074278;28;20297;-83
2023/03/22 06:50:07;;;;;;;;;;;;;;;;;;5075347;28;19924;-83
2023/03/22 06:52:33;;;;;;;;;;;;;;;;;;5075423;28;19924;-83
2023/03/22 06:54:59;;;;;;;;;;;;;;;;;;5074826;28;19925;-83
2023/03/22 06:57:25;;;;;;;;;;;;;;;;;;5075436;28;19925;-82
2023/03/22 06:59:51;;;;;;;;;;;;;;;;;;5075591;28;19957;-84
2023/03/22 07:02:17;;;;;;;;;;;;;;;;;;5073726;28;19924;-83
2023/03/22 07:04:43;;;;;;;;;;;;;;;;;;5075305;28;20258;-83
2023/03/22 07:07:09;;;;;;;;;;;;;;;;;;5075211;28;19931;-83
2023/03/22 07:09:35;;;;;;;;;;;;;;;;;;5074430;28;20365;-82
2023/03/22 07:12:01;;;;;;;;;;;;;;;;;;5075194;28;19931;-82
2023/03/22 07:14:27;;;;;;;;;;;;;;;;;;5073727;28;19925;-83
2023/03/22 07:16:53;;;;;;;;;;;;;;;;;;5074825;28;19932;-83
2023/03/22 07:19:19;;;;;;;;;;;;;;;;;;5074668;28;19928;-84
2023/03/22 07:21:45;;;;;;;;;;;;;;;;;;5075006;28;20365;-83
2023/03/22 07:24:11;;;;;;;;;;;;;;;;;;5073919;28;19925;-82
2023/03/22 07:26:37;;;;;;;;;;;;;;;;;;5074788;28;20347;-83
2023/03/22 07:29:02;;;;;;;;;;;;;;;;;;5075008;28;19967;-82
2023/03/22 07:31:30;;;;;;;;;;;;;;;;;;5073483;28;20371;-83
2023/03/22 07:33:56;;;;;;;;;;;;;;;;;;5074597;28;20339;-82
2023/03/22 07:36:24;;;;;;;;;;;;;;;;;;5074577;28;19924;-82
2023/03/22 07:38:50;;;;;;;;;;;;;;;;;;5074205;28;20015;-82
2023/03/22 07:41:16;;;;;;;;;;;;;;;;;;5074132;28;19987;-82
2023/03/22 07:43:42;;;;;;;;;;;;;;;;;;5074598;28;19939;-81
2023/03/22 07:46:08;;;;;;;;;;;;;;;;;;5074500;28;19931;-82
2023/03/22 07:48:34;;;;;;;;;;;;;;;;;;5074575;28;20312;-82
2023/03/22 07:51:00;;;;;;;;;;;;;;;;;;5074629;28;19982;-81
2023/03/22 07:53:26;;;;;;;;;;;;;;;;;;5073849;28;20593;-82
2023/03/22 07:55:52;;;;;;;;;;;;;;;;;;5074067;28;19986;-82
2023/03/22 07:58:18;;;;;;;;;;;;;;;;;;5073029;28;19924;-82
2023/03/22 08:00:44;;;;;;;;;;;;;;;;;;5074519;28;19977;-82
2023/03/22 08:03:11;;;;;;;;;;;;;;;;;;5073618;28;20460;-83
2023/03/22 08:05:36;;;;;;;;;;;;;;;;;;5074061;28;20256;-83
2023/03/22 08:08:02;;;;;;;;;;;;;;;;;;5074453;28;19924;-82
2023/03/22 08:10:30;;;;;;;;;;;;;;;;;;5073186;28;20523;-82
2023/03/22 08:12:56;;;;;;;;;;;;;;;;;;5074075;28;19928;-81
2023/03/22 08:15:22;;;;;;;;;;;;;;;;;;5073921;28;19925;-83
2023/03/22 08:17:48;;;;;;;;;;;;;;;;;;5074274;28;20378;-82
2023/03/22 08:20:17;;;;;;;;;;;;;;;;;;5073536;28;19974;-82
2023/03/22 08:22:43;;;;;;;;;;;;;;;;;;5073783;28;20285;-85
2023/03/22 08:25:09;;;;;;;;;;;;;;;;;;5072876;28;19925;-85
2023/03/22 08:27:35;;;;;;;;;;;;;;;;;;5073543;28;19931;-84
2023/03/22 08:30:01;;;;;;;;;;;;;;;;;;5073948;28;19936;-86
2023/03/22 08:32:27;;;;;;;;;;;;;;;;;;5073485;28;19924;-84
2023/03/22 08:34:53;;;;;;;;;;;;;;;;;;5073673;28;19931;-83
2023/03/22 08:37:19;;;;;;;;;;;;;;;;;;5073500;28;20408;-88
2023/03/22 08:39:45;;;;;;;;;;;;;;;;;;5072922;28;19932;-82
2023/03/22 08:42:11;;;;;;;;;;;;;;;;;;5073768;28;19924;-80
2023/03/22 08:44:37;;;;;;;;;;;;;;;;;;5073136;28;19972;-84
2023/03/22 08:47:02;;;;;;;;;;;;;;;;;;5073429;28;19924;-82
2023/03/22 08:49:28;;;;;;;;;;;;;;;;;;5072049;28;20008;-81
2023/03/22 08:51:56;;;;;;;;;;;;;;;;;;5073621;28;19925;-83
2023/03/22 08:54:22;;;;;;;;;;;;;;;;;;5072257;28;19932;-80
2023/03/22 08:56:49;;;;;;;;;;;;;;;;;;5073520;28;19924;-81
2023/03/22 08:59:15;;;;;;;;;;;;;;;;;;5073267;28;19975;-80
2023/03/22 09:01:41;;;;;;;;;;;;;;;;;;5073356;28;20498;-81
2023/03/22 09:04:07;;;;;;;;;;;;;;;;;;5072851;28;19925;-81
2023/03/22 09:06:33;;;;;;;;;;;;;;;;;;5072557;28;19929;-81
2023/03/22 09:08:59;;;;;;;;;;;;;;;;;;5072515;28;19981;-78
2023/03/22 09:11:25;;;;;;;;;;;;;;;;;;5071872;28;19933;-83
2023/03/22 09:13:51;;;;;;;;;;;;;;;;;;5072821;28;19924;-83
2023/03/22 09:16:17;;;;;;;;;;;;;;;;;;5072686;28;19980;-81
2023/03/22 09:18:43;;;;;;;;;;;;;;;;;;5072452;28;19982;-82
2023/03/22 09:21:09;;;;;;;;;;;;;;;;;;5072735;28;19978;-82
2023/03/22 09:23:35;;;;;;;;;;;;;;;;;;5071356;28;19925;-82
2023/03/22 09:26:01;;;;;;;;;;;;;;;;;;5072299;28;19924;-81
2023/03/22 09:28:27;;;;;;;;;;;;;;;;;;5071964;28;19930;-81
2023/03/22 09:30:53;;;;;;;;;;;;;;;;;;5072387;28;19952;-80
2023/03/22 09:33:19;;;;;;;;;;;;;;;;;;5072278;28;20042;-80
2023/03/22 09:35:45;;;;;;;;;;;;;;;;;;5072333;28;19962;-81
2023/03/22 09:38:11;;;;;;;;;;;;;;;;;;5071351;28;20447;-81
2023/03/22 09:40:37;;;;;;;;;;;;;;;;;;5071474;28;19947;-80
2023/03/22 09:43:03;;;;;;;;;;;;;;;;;;5072436;28;19924;-83
2023/03/22 09:45:33;;;;;;;;;;;;;;;;;;5071204;28;20357;-80
2023/03/22 09:48:00;;;;;;;;;;;;;;;;;;5072209;28;19924;-81
2023/03/22 09:50:26;;;;;;;;;;;;;;;;;;5087629;28;20281;-80
2023/03/22 09:52:52;;;;;;;;;;;;;;;;;;5072469;28;19924;-80
2023/03/22 09:55:18;;;;;;;;;;;;;;;;;;5071425;28;20441;-80
2023/03/22 09:57:44;;;;;;;;;;;;;;;;;;5071825;28;19947;-81
2023/03/22 10:00:11;;;;;;;;;;;;;;;;;;5070982;28;20380;-85
2023/03/22 10:02:37;;;;;;;;;;;;;;;;;;5071797;28;19924;-80
2023/03/22 10:05:03;;;;;;;;;;;;;;;;;;5071916;28;19931;-80
2023/03/22 10:07:29;;;;;;;;;;;;;;;;;;5071629;28;19924;-80
2023/03/22 10:09:55;;;;;;;;;;;;;;;;;;5070908;28;20393;-80
2023/03/22 10:12:21;;;;;;;;;;;;;;;;;;5072214;28;19924;-80
2023/03/22 10:14:47;;;;;;;;;;;;;;;;;;5071744;28;20258;-80
2023/03/22 10:17:13;;;;;;;;;;;;;;;;;;5072208;28;19932;-80
2023/03/22 10:19:40;;;;;;;;;;;;;;;;;;5071513;28;20018;-80
2023/03/22 10:22:06;;;;;;;;;;;;;;;;;;5071612;28;19937;-80
2023/03/22 10:24:32;;;;;;;;;;;;;;;;;;5070736;28;19932;-80
2023/03/22 10:26:58;;;;;;;;;;;;;;;;;;5072130;28;19978;-81
2023/03/22 10:29:24;;;;;;;;;;;;;;;;;;5071759;28;19925;-82
2023/03/22 10:31:50;;;;;;;;;;;;;;;;;;5070959;28;19924;-81
2023/03/22 10:34:16;;;;;;;;;;;;;;;;;;5070484;28;19950;-80
2023/03/22 10:36:42;;;;;;;;;;;;;;;;;;5069890;28;20019;-82
2023/03/22 10:39:08;;;;;;;;;;;;;;;;;;5070877;28;19924;-82
2023/03/22 10:41:34;;;;;;;;;;;;;;;;;;5071388;28;19930;-82
2023/03/22 10:43:59;;;;;;;;;;;;;;;;;;5071231;28;19986;-82
2023/03/22 10:46:25;;;;;;;;;;;;;;;;;;5087611;28;19935;-82
2023/03/22 10:48:51;;;;;;;;;;;;;;;;;;5071039;28;19932;-81
2023/03/22 10:51:17;;;;;;;;;;;;;;;;;;5071614;28;20384;-81
2023/03/22 10:53:43;;;;;;;;;;;;;;;;;;5070756;28;19928;-81
2023/03/22 10:56:09;;;;;;;;;;;;;;;;;;5071245;28;20015;-81
2023/03/22 10:58:35;;;;;;;;;;;;;;;;;;5071002;28;19932;-82
2023/03/22 11:01:01;;;;;;;;;;;;;;;;;;5070411;28;19925;-83
2023/03/22 11:03:27;;;;;;;;;;;;;;;;;;5071350;28;19928;-81
2023/03/22 11:05:53;;;;;;;;;;;;;;;;;;5071170;28;19932;-84
2023/03/22 11:08:19;;;;;;;;;;;;;;;;;;5070872;28;19925;-85
2023/03/22 11:10:45;;;;;;;;;;;;;;;;;;5070183;28;20353;-83
2023/03/22 11:13:11;;;;;;;;;;;;;;;;;;5071522;28;19924;-84
2023/03/22 11:15:37;;;;;;;;;;;;;;;;;;5070652;28;19931;-83
2023/03/22 11:18:03;;;;;;;;;;;;;;;;;;5071250;28;20015;-84
2023/03/22 11:20:29;;;;;;;;;;;;;;;;;;5070915;28;20384;-83
2023/03/22 11:22:56;;;;;;;;;;;;;;;;;;5071073;28;20012;-82
2023/03/22 11:25:22;;;;;;;;;;;;;;;;;;5070432;28;19925;-84
2023/03/22 11:27:48;;;;;;;;;;;;;;;;;;5070892;28;20250;-86
2023/03/22 11:30:14;;;;;;;;;;;;;;;;;;5071167;28;19935;-84
2023/03/22 11:32:40;;;;;;;;;;;;;;;;;;5069853;28;19932;-83
2023/03/22 11:35:06;;;;;;;;;;;;;;;;;;5073880;28;19928;-84
2023/03/22 11:37:32;;;;;;;;;;;;;;;;;;5074773;28;20373;-80
2023/03/22 11:39:58;;;;;;;;;;;;;;;;;;5073814;28;19924;-85
2023/03/22 11:42:24;;;;;;;;;;;;;;;;;;5074844;28;19970;-86
2023/03/22 11:44:50;;;;;;;;;;;;;;;;;;5074194;28;19970;-86
2023/03/22 11:47:15;;;;;;;;;;;;;;;;;;5074704;28;20535;-86
2023/03/22 11:49:41;;;;;;;;;;;;;;;;;;5074113;28;19924;-86
2023/03/22 11:52:08;;;;;;;;;;;;;;;;;;5072872;28;19928;-86
2023/03/22 11:54:34;;;;;;;;;;;;;;;;;;5073632;28;20041;-82
2023/03/22 11:57:01;;;;;;;;;;;;;;;;;;5074055;28;19930;-86
2023/03/22 11:59:27;;;;;;;;;;;;;;;;;;5072351;28;20466;-85
2023/03/22 12:01:53;;;;;;;;;;;;;;;;;;5073623;28;19924;-84
2023/03/22 12:04:19;;;;;;;;;;;;;;;;;;5073700;28;20023;-86
2023/03/22 12:06:46;;;;;;;;;;;;;;;;;;5073319;28;20269;-85
2023/03/22 12:09:12;;;;;;;;;;;;;;;;;;5073025;28;20022;-85
2023/03/22 12:11:38;;;;;;;;;;;;;;;;;;5073553;28;20323;-81
2023/03/22 12:14:04;;;;;;;;;;;;;;;;;;5073375;28;19924;-85
2023/03/22 12:16:30;;;;;;;;;;;;;;;;;;5074144;28;20525;-87
2023/03/22 12:18:56;;;;;;;;;;;;;;;;;;5072338;28;20024;-84
2023/03/22 12:21:22;;;;;;;;;;;;;;;;;;5073262;28;20018;-86
2023/03/22 12:23:48;;;;;;;;;;;;;;;;;;5072302;28;19977;-84
2023/03/22 12:26:14;;;;;;;;;;;;;;;;;;5073424;28;19948;-84
2023/03/22 12:28:40;;;;;;;;;;;;;;;;;;5073730;28;19987;-80
2023/03/22 12:31:06;;;;;;;;;;;;;;;;;;5074212;28;19932;-88
2023/03/22 12:33:32;;;;;;;;;;;;;;;;;;5073649;28;19925;-81
2023/03/22 12:35:58;;;;;;;;;;;;;;;;;;5073117;28;19976;-83
2023/03/22 12:38:26;;;;;;;;;;;;;;;;;;5072938;28;19924;-82
2023/03/22 12:40:52;;;;;;;;;;;;;;;;;;5072931;28;19928;-84
2023/03/22 12:43:18;;;;;;;;;;;;;;;;;;5073828;28;19978;-85
2023/03/22 12:45:46;;;;;;;;;;;;;;;;;;5072876;28;20284;-83
2023/03/22 12:48:12;;;;;;;;;;;;;;;;;;5073708;28;19924;-84
2023/03/22 12:50:38;;;;;;;;;;;;;;;;;;5073062;28;19978;-84
2023/03/22 12:53:04;;;;;;;;;;;;;;;;;;5073180;28;19925;-83
2023/03/22 12:55:30;;;;;;;;;;;;;;;;;;5072213;28;19971;-84
2023/03/22 12:57:56;;;;;;;;;;;;;;;;;;5072995;28;19929;-84
2023/03/22 13:00:22;;;;;;;;;;;;;;;;;;5073250;28;19947;-84
2023/03/22 13:02:48;;;;;;;;;;;;;;;;;;5072765;28;20019;-82
2023/03/22 13:05:13;;;;;;;;;;;;;;;;;;5072745;28;19931;-84
2023/03/22 13:07:39;;;;;;;;;;;;;;;;;;5072280;28;20007;-85
2023/03/22 13:10:06;;;;;;;;;;;;;;;;;;5071888;28;20377;-83
2023/03/22 13:12:32;;;;;;;;;;;;;;;;;;5073030;28;20001;-85
2023/03/22 13:14:58;;;;;;;;;;;;;;;;;;5071514;28;19925;-89
2023/03/22 13:17:24;;;;;;;;;;;;;;;;;;5072881;28;20015;-84
2023/03/22 13:19:50;;;;;;;;;;;;;;;;;;5072190;28;19932;-84
2023/03/22 13:22:16;;;;;;;;;;;;;;;;;;5072942;28;19928;-85
2023/03/22 13:24:42;;;;;;;;;;;;;;;;;;5071857;28;19924;-85
2023/03/22 13:27:10;;;;;;;;;;;;;;;;;;5072486;28;19930;-84
2023/03/22 13:29:36;;;;;;;;;;;;;;;;;;5072834;28;19983;-84
2023/03/22 13:32:02;;;;;;;;;;;;;;;;;;5070988;28;19971;-82
2023/03/22 13:34:28;;;;;;;;;;;;;;;;;;5072100;28;19979;-83
2023/03/22 13:36:55;;;;;;;;;;;;;;;;;;5071979;28;19939;-81
2023/03/22 13:39:22;;;;;;;;;;;;;;;;;;5069711;28;19924;-85
2023/03/22 13:41:48;;;;;;;;;;;;;;;;;;5072111;28;19969;-79
2023/03/22 13:44:14;;;;;;;;;;;;;;;;;;5072276;28;19924;-87
2023/03/22 13:46:40;;;;;;;;;;;;;;;;;;5072452;28;19924;-85
2023/03/22 13:49:06;;;;;;;;;;;;;;;;;;5071802;28;20297;-84
2023/03/22 13:51:32;;;;;;;;;;;;;;;;;;5072451;28;19925;-85
2023/03/22 13:54:03;;;;;;;;;;;;;;;;;;5071433;28;20391;-81
2023/03/22 13:56:29;;;;;;;;;;;;;;;;;;5087394;28;20339;-82
2023/03/22 13:58:57;;;;;;;;;;;;;;;;;;5071678;28;19928;-83
2023/03/22 14:01:23;;;;;;;;;;;;;;;;;;5072061;28;19975;-82
2023/03/22 14:03:49;;;;;;;;;;;;;;;;;;5071819;28;19931;-83
2023/03/22 14:06:16;;;;;;;;;;;;;;;;;;5071323;28;19951;-88
2023/03/22 14:08:42;;;;;;;;;;;;;;;;;;5071281;28;20269;-87
2023/03/22 14:11:08;;;;;;;;;;;;;;;;;;5070956;28;20435;-86
2023/03/22 14:13:34;;;;;;;;;;;;;;;;;;5070598;28;20003;-88
2023/03/22 14:16:00;;;;;;;;;;;;;;;;;;5087303;28;19982;-87
2023/03/22 14:18:26;;;;;;;;;;;;;;;;;;5071645;28;20144;-92
2023/03/22 14:20:51;;;;;;;;;;;;;;;;;;5087369;28;19932;-92
2023/03/22 14:23:17;;;;;;;;;;;;;;;;;;5071824;28;19925;-91
2023/03/22 14:25:43;;;;;;;;;;;;;;;;;;5069541;28;19925;-88
2023/03/22 14:28:09;;;;;;;;;;;;;;;;;;5071385;28;19925;-89
2023/03/22 14:30:35;;;;;;;;;;;;;;;;;;5071636;28;19983;-86
2023/03/22 14:33:01;;;;;;;;;;;;;;;;;;5070509;28;19924;-90
2023/03/22 14:35:31;;;;;;;;;;;;;;;;;;5071309;28;20029;-87
2023/03/22 14:37:57;;;;;;;;;;;;;;;;;;5071227;28;19925;-83
2023/03/22 14:40:23;;;;;;;;;;;;;;;;;;5069702;28;20304;-89
2023/03/22 14:42:49;;;;;;;;;;;;;;;;;;5070765;28;19969;-86
2023/03/22 14:45:15;;;;;;;;;;;;;;;;;;5070511;28;19924;-85
2023/03/22 14:47:42;;;;;;;;;;;;;;;;;;5071303;28;19924;-89
2023/03/22 14:50:08;;;;;;;;;;;;;;;;;;5070503;28;19932;-88
2023/03/22 14:52:35;;;;;;;;;;;;;;;;;;5071130;28;19924;-87
2023/03/22 14:55:01;;;;;;;;;;;;;;;;;;5069709;28;20447;-87
2023/03/22 14:57:27;;;;;;;;;;;;;;;;;;5071047;28;19971;-86
2023/03/22 14:59:53;;;;;;;;;;;;;;;;;;5071094;28;19925;-88
2023/03/22 15:02:18;;;;;;;;;;;;;;;;;;5069517;28;20202;-86
2023/03/22 15:04:45;;;;;;;;;;;;;;;;;;5070408;28;19925;-88
2023/03/22 15:07:11;;;;;;;;;;;;;;;;;;5070595;28;19925;-90
2023/03/22 15:09:37;;;;;;;;;;;;;;;;;;5073897;28;19925;-88
2023/03/22 15:12:03;;;;;;;;;;;;;;;;;;5074450;28;20503;-92
2023/03/22 15:14:29;;;;;;;;;;;;;;;;;;5074736;28;20377;-91
2023/03/22 15:16:55;;;;;;;;;;;;;;;;;;5074958;28;20019;-90
2023/03/22 15:19:21;;;;;;;;;;;;;;;;;;5073998;28;20016;-90
2023/03/22 15:21:47;;;;;;;;;;;;;;;;;;5090573;28;19928;-90
2023/03/22 15:24:13;;;;;;;;;;;;;;;;;;5072973;28;19931;-90
2023/03/22 15:26:39;;;;;;;;;;;;;;;;;;5074456;28;19971;-89
2023/03/22 15:29:06;;;;;;;;;;;;;;;;;;5074062;28;19924;-88
2023/03/22 15:31:32;;;;;;;;;;;;;;;;;;5074337;28;19924;-88
2023/03/22 15:33:58;;;;;;;;;;;;;;;;;;5074306;28;20381;-86
2023/03/22 15:36:24;;;;;;;;;;;;;;;;;;5072707;28;19931;-85
2023/03/22 15:38:50;;;;;;;;;;;;;;;;;;5073622;28;20357;-85
2023/03/22 15:41:16;;;;;;;;;;;;;;;;;;5073592;28;19935;-86
2023/03/22 15:43:43;;;;;;;;;;;;;;;;;;5073919;28;19925;-85
2023/03/22 15:46:09;;;;;;;;;;;;;;;;;;5072363;28;19924;-84
2023/03/22 15:48:35;;;;;;;;;;;;;;;;;;5073030;28;19932;-83
2023/03/22 15:51:01;;;;;;;;;;;;;;;;;;5072571;28;19924;-82
2023/03/22 15:53:27;;;;;;;;;;;;;;;;;;5073244;28;19977;-83
2023/03/22 15:55:53;;;;;;;;;;;;;;;;;;5072390;28;19931;-83
2023/03/22 15:58:19;;;;;;;;;;;;;;;;;;5073449;28;19931;-82
2023/03/22 16:00:46;;;;;;;;;;;;;;;;;;5073924;28;20017;-88
2023/03/22 16:03:12;;;;;;;;;;;;;;;;;;5089526;28;19925;-85
2023/03/22 16:05:38;;;;;;;;;;;;;;;;;;5072229;28;19932;-89
2023/03/22 16:08:04;;;;;;;;;;;;;;;;;;5073544;28;19925;-82
2023/03/22 16:10:30;;;;;;;;;;;;;;;;;;5072865;28;19972;-87
2023/03/22 16:12:56;;;;;;;;;;;;;;;;;;5072363;28;19932;-83
2023/03/22 16:15:22;;;;;;;;;;;;;;;;;;5073269;28;20297;-88
2023/03/22 16:17:48;;;;;;;;;;;;;;;;;;5073764;28;19932;-83
2023/03/22 16:20:14;;;;;;;;;;;;;;;;;;5072663;28;19928;-85
2023/03/22 16:22:40;;;;;;;;;;;;;;;;;;5074148;28;19924;-86
2023/03/22 16:25:06;;;;;;;;;;;;;;;;;;5072385;28;19981;-84
2023/03/22 16:27:32;;;;;;;;;;;;;;;;;;5073447;28;19984;-87
2023/03/22 16:29:58;;;;;;;;;;;;;;;;;;5073553;28;19925;-87
2023/03/22 16:32:24;;;;;;;;;;;;;;;;;;5072636;28;20015;-82
2023/03/22 16:34:50;;;;;;;;;;;;;;;;;;5073391;28;20393;-84
2023/03/22 16:37:16;;;;;;;;;;;;;;;;;;5073665;28;19936;-85